sensor_id;sensor_type;location;lat;lon;timestamp;pressure;altitude;pressure_sealevel;temperature;humidity
79527;BME280;68974;47.754;-3.364;2023-04-28T00:00:50;101334.56;;;13.73;92.15
79527;BME280;68974;47.754;-3.364;2023-04-28T00:03:16;101329.88;;;13.74;91.91
79527;BME280;68974;47.754;-3.364;2023-04-28T00:05:41;101327.41;;;13.72;91.83
79527;BME280;68974;47.754;-3.364;2023-04-28T00:08:07;101329.09;;;13.68;92.31
79527;BME280;68974;47.754;-3.364;2023-04-28T00:10:33;101330.91;;;13.83;91.73
79527;BME280;68974;47.754;-3.364;2023-04-28T00:12:59;101326.78;;;13.80;91.59
79527;BME280;68974;47.754;-3.364;2023-04-28T00:15:25;101328.22;;;13.78;91.77
79527;BME280;68974;47.754;-3.364;2023-04-28T00:17:50;101324.59;;;13.82;91.68
79527;BME280;68974;47.754;-3.364;2023-04-28T00:20:16;101326.78;;;13.80;92.07
79527;BME280;68974;47.754;-3.364;2023-04-28T00:22:42;101325.69;;;13.81;91.71
79527;BME280;68974;47.754;-3.364;2023-04-28T00:25:08;101320.69;;;13.83;91.89
79527;BME280;68974;47.754;-3.364;2023-04-28T00:27:34;101317.41;;;13.81;91.85
79527;BME280;68974;47.754;-3.364;2023-04-28T00:30:00;101320.41;;;13.85;91.80
79527;BME280;68974;47.754;-3.364;2023-04-28T00:32:25;101311.34;;;13.79;92.19
79527;BME280;68974;47.754;-3.364;2023-04-28T00:34:51;101320.69;;;13.83;91.96
79527;BME280;68974;47.754;-3.364;2023-04-28T00:37:18;101308.28;;;13.81;91.66
79527;BME280;68974;47.754;-3.364;2023-04-28T00:39:43;101308.56;;;13.79;92.23
79527;BME280;68974;47.754;-3.364;2023-04-28T00:42:15;101313.00;;;13.80;91.80
79527;BME280;68974;47.754;-3.364;2023-04-28T00:44:40;101307.47;;;13.80;92.20
79527;BME280;68974;47.754;-3.364;2023-04-28T00:47:07;101300.84;;;13.81;91.69
79527;BME280;68974;47.754;-3.364;2023-04-28T00:49:34;101300.84;;;13.81;91.79
79527;BME280;68974;47.754;-3.364;2023-04-28T00:52:05;101306.59;;;13.85;92.14
79527;BME280;68974;47.754;-3.364;2023-04-28T00:54:32;101305.78;;;13.84;91.98
79527;BME280;68974;47.754;-3.364;2023-04-28T00:56:58;101312.34;;;13.88;91.94
79527;BME280;68974;47.754;-3.364;2023-04-28T00:59:24;101314.66;;;13.81;92.13
79527;BME280;68974;47.754;-3.364;2023-04-28T01:01:49;101304.72;;;13.80;92.12
79527;BME280;68974;47.754;-3.364;2023-04-28T01:04:17;101302.00;;;13.75;92.03
79527;BME280;68974;47.754;-3.364;2023-04-28T01:06:44;101301.94;;;13.80;92.37
79527;BME280;68974;47.754;-3.364;2023-04-28T01:09:11;101305.72;;;13.89;91.64
79527;BME280;68974;47.754;-3.364;2023-04-28T01:11:36;101297.56;;;13.74;92.17
79527;BME280;68974;47.754;-3.364;2023-04-28T01:14:01;101296.47;;;13.75;92.02
79527;BME280;68974;47.754;-3.364;2023-04-28T01:16:27;101301.75;;;13.72;91.99
79527;BME280;68974;47.754;-3.364;2023-04-28T01:18:54;101301.44;;;13.73;91.87
79527;BME280;68974;47.754;-3.364;2023-04-28T01:21:27;101301.16;;;13.75;92.12
79527;BME280;68974;47.754;-3.364;2023-04-28T01:23:57;101297.53;;;13.79;92.09
79527;BME280;68974;47.754;-3.364;2023-04-28T01:26:22;101305.34;;;13.72;92.29
79527;BME280;68974;47.754;-3.364;2023-04-28T01:28:48;101302.56;;;13.72;92.29
79527;BME280;68974;47.754;-3.364;2023-04-28T01:31:13;101310.22;;;13.80;91.91
79527;BME280;68974;47.754;-3.364;2023-04-28T01:33:39;101306.13;;;13.78;92.00
79527;BME280;68974;47.754;-3.364;2023-04-28T01:36:04;101304.78;;;13.70;92.11
79527;BME280;68974;47.754;-3.364;2023-04-28T01:38:30;101298.19;;;13.66;92.54
79527;BME280;68974;47.754;-3.364;2023-04-28T01:40:55;101305.91;;;13.69;92.24
79527;BME280;68974;47.754;-3.364;2023-04-28T01:43:22;101294.84;;;13.69;92.19
79527;BME280;68974;47.754;-3.364;2023-04-28T01:45:48;101297.09;;;13.67;92.08
79527;BME280;68974;47.754;-3.364;2023-04-28T01:48:13;101302.56;;;13.72;92.00
79527;BME280;68974;47.754;-3.364;2023-04-28T01:50:38;101297.00;;;13.77;91.67
79527;BME280;68974;47.754;-3.364;2023-04-28T01:53:04;101303.13;;;13.69;91.77
79527;BME280;68974;47.754;-3.364;2023-04-28T01:55:29;101298.19;;;13.66;92.35
79527;BME280;68974;47.754;-3.364;2023-04-28T01:57:55;101301.47;;;13.68;92.00
79527;BME280;68974;47.754;-3.364;2023-04-28T02:00:22;101296.03;;;13.63;92.36
79527;BME280;68974;47.754;-3.364;2023-04-28T02:02:48;101302.03;;;13.70;92.10
79527;BME280;68974;47.754;-3.364;2023-04-28T02:05:13;101309.19;;;13.71;91.71
79527;BME280;68974;47.754;-3.364;2023-04-28T02:07:39;101307.06;;;13.63;92.10
79527;BME280;68974;47.754;-3.364;2023-04-28T02:10:04;101307.59;;;13.65;92.03
79527;BME280;68974;47.754;-3.364;2023-04-28T02:12:30;101308.94;;;13.73;91.44
79527;BME280;68974;47.754;-3.364;2023-04-28T02:14:56;101305.38;;;13.67;92.03
79527;BME280;68974;47.754;-3.364;2023-04-28T02:17:21;101307.09;;;13.58;91.88
79527;BME280;68974;47.754;-3.364;2023-04-28T02:19:47;101304.88;;;13.60;92.32
79527;BME280;68974;47.754;-3.364;2023-04-28T02:22:12;101307.34;;;13.62;91.81
79527;BME280;68974;47.754;-3.364;2023-04-28T02:24:37;101306.28;;;13.58;92.03
79527;BME280;68974;47.754;-3.364;2023-04-28T02:27:03;101304.00;;;13.65;91.96
79527;BME280;68974;47.754;-3.364;2023-04-28T02:29:29;101302.38;;;13.59;92.08
79527;BME280;68974;47.754;-3.364;2023-04-28T02:31:56;101303.47;;;13.63;92.26
79527;BME280;68974;47.754;-3.364;2023-04-28T02:34:21;101304.88;;;13.60;91.99
79527;BME280;68974;47.754;-3.364;2023-04-28T02:36:46;101309.56;;;13.60;92.03
79527;BME280;68974;47.754;-3.364;2023-04-28T02:39:12;101309.81;;;13.63;92.22
79527;BME280;68974;47.754;-3.364;2023-04-28T02:41:38;101308.72;;;13.59;92.02
79527;BME280;68974;47.754;-3.364;2023-04-28T02:44:03;101308.72;;;13.59;92.15
79527;BME280;68974;47.754;-3.364;2023-04-28T02:46:29;101297.72;;;13.54;91.94
79527;BME280;68974;47.754;-3.364;2023-04-28T02:48:54;101304.38;;;13.53;92.53
79527;BME280;68974;47.754;-3.364;2023-04-28T02:51:20;101304.63;;;13.57;92.12
79527;BME280;68974;47.754;-3.364;2023-04-28T02:53:46;101310.97;;;13.57;92.10
79527;BME280;68974;47.754;-3.364;2023-04-28T02:56:11;101303.56;;;13.53;92.28
79527;BME280;68974;47.754;-3.364;2023-04-28T02:58:36;101304.88;;;13.60;92.11
79527;BME280;68974;47.754;-3.364;2023-04-28T03:01:02;101305.44;;;13.57;91.81
79527;BME280;68974;47.754;-3.364;2023-04-28T03:03:27;101298.28;;;13.56;92.27
79527;BME280;68974;47.754;-3.364;2023-04-28T03:05:52;101298.84;;;13.53;92.00
79527;BME280;68974;47.754;-3.364;2023-04-28T03:08:20;101305.19;;;13.54;92.43
79527;BME280;68974;47.754;-3.364;2023-04-28T03:10:46;101298.84;;;13.53;92.18
79527;BME280;68974;47.754;-3.364;2023-04-28T03:13:11;101312.66;;;13.53;92.31
79527;BME280;68974;47.754;-3.364;2023-04-28T03:15:37;101311.03;;;13.47;92.26
79527;BME280;68974;47.754;-3.364;2023-04-28T03:18:02;101311.31;;;13.45;92.36
79527;BME280;68974;47.754;-3.364;2023-04-28T03:20:28;101310.44;;;13.50;92.24
79527;BME280;68974;47.754;-3.364;2023-04-28T03:22:53;101315.97;;;13.50;92.24
79527;BME280;68974;47.754;-3.364;2023-04-28T03:25:18;101314.31;;;13.49;92.34
79527;BME280;68974;47.754;-3.364;2023-04-28T03:27:44;101312.69;;;13.48;92.35
79527;BME280;68974;47.754;-3.364;2023-04-28T03:30:10;101317.63;;;13.51;92.05
79527;BME280;68974;47.754;-3.364;2023-04-28T03:32:35;101322.06;;;13.47;92.01
79527;BME280;68974;47.754;-3.364;2023-04-28T03:35:01;101318.72;;;13.50;92.26
79527;BME280;68974;47.754;-3.364;2023-04-28T03:37:26;101322.59;;;13.49;92.58
79527;BME280;68974;47.754;-3.364;2023-04-28T03:39:51;101317.06;;;13.49;92.14
79527;BME280;68974;47.754;-3.364;2023-04-28T03:42:17;101319.53;;;13.56;91.81
79527;BME280;68974;47.754;-3.364;2023-04-28T03:44:42;101333.06;;;13.57;91.80
79527;BME280;68974;47.754;-3.364;2023-04-28T03:47:08;101320.94;;;13.53;92.04
79527;BME280;68974;47.754;-3.364;2023-04-28T03:49:33;101326.16;;;13.55;92.14
79527;BME280;68974;47.754;-3.364;2023-04-28T03:51:58;101323.72;;;13.48;92.22
79527;BME280;68974;47.754;-3.364;2023-04-28T03:54:24;101324.28;;;13.45;92.23
79527;BME280;68974;47.754;-3.364;2023-04-28T03:56:49;101319.28;;;13.52;91.63
79527;BME280;68974;47.754;-3.364;2023-04-28T03:59:15;101322.31;;;13.51;92.15
79527;BME280;68974;47.754;-3.364;2023-04-28T04:01:40;101321.50;;;13.50;92.37
79527;BME280;68974;47.754;-3.364;2023-04-28T04:04:06;101318.78;;;13.45;92.46
79527;BME280;68974;47.754;-3.364;2023-04-28T04:06:31;101324.28;;;13.45;92.72
79527;BME280;68974;47.754;-3.364;2023-04-28T04:08:57;101325.38;;;13.44;92.41
79527;BME280;68974;47.754;-3.364;2023-04-28T04:11:22;101323.22;;;13.41;92.75
79527;BME280;68974;47.754;-3.364;2023-04-28T04:13:47;101328.97;;;13.44;92.77
79527;BME280;68974;47.754;-3.364;2023-04-28T04:16:13;101334.47;;;13.50;92.59
79527;BME280;68974;47.754;-3.364;2023-04-28T04:18:41;101333.19;;;13.37;92.86
79527;BME280;68974;47.754;-3.364;2023-04-28T04:21:07;101341.44;;;13.42;92.41
79527;BME280;68974;47.754;-3.364;2023-04-28T04:23:32;101335.91;;;13.42;92.48
79527;BME280;68974;47.754;-3.364;2023-04-28T04:25:58;101337.31;;;13.34;92.45
79527;BME280;68974;47.754;-3.364;2023-04-28T04:28:23;101335.38;;;13.35;92.43
79527;BME280;68974;47.754;-3.364;2023-04-28T04:30:48;101326.88;;;13.31;92.67
79527;BME280;68974;47.754;-3.364;2023-04-28T04:33:14;101344.22;;;13.37;92.57
79527;BME280;68974;47.754;-3.364;2023-04-28T04:35:39;101343.69;;;13.30;92.58
79527;BME280;68974;47.754;-3.364;2023-04-28T04:38:05;101352.53;;;13.32;92.29
79527;BME280;68974;47.754;-3.364;2023-04-28T04:40:31;101344.28;;;13.27;93.09
79527;BME280;68974;47.754;-3.364;2023-04-28T04:42:57;101347.00;;;13.32;92.45
79527;BME280;68974;47.754;-3.364;2023-04-28T04:45:22;101339.81;;;13.36;92.37
79527;BME280;68974;47.754;-3.364;2023-04-28T04:47:48;101344.28;;;13.27;92.78
79527;BME280;68974;47.754;-3.364;2023-04-28T04:50:13;101350.88;;;13.31;92.90
79527;BME280;68974;47.754;-3.364;2023-04-28T04:52:39;101350.88;;;13.31;92.39
79527;BME280;68974;47.754;-3.364;2023-04-28T04:55:05;101348.69;;;13.28;92.85
79527;BME280;68974;47.754;-3.364;2023-04-28T04:57:30;101356.09;;;13.32;92.55
79527;BME280;68974;47.754;-3.364;2023-04-28T04:59:56;101344.53;;;13.25;92.79
79527;BME280;68974;47.754;-3.364;2023-04-28T05:02:21;101354.22;;;13.28;92.51
79527;BME280;68974;47.754;-3.364;2023-04-28T05:04:47;101342.63;;;13.26;92.53
79527;BME280;68974;47.754;-3.364;2023-04-28T05:07:12;101346.75;;;13.28;92.48
79527;BME280;68974;47.754;-3.364;2023-04-28T05:09:38;101347.03;;;13.27;92.51
79527;BME280;68974;47.754;-3.364;2023-04-28T05:12:03;101351.47;;;13.23;92.38
79527;BME280;68974;47.754;-3.364;2023-04-28T05:14:29;101351.44;;;13.28;92.29
79527;BME280;68974;47.754;-3.364;2023-04-28T05:16:54;101347.31;;;13.25;92.85
79527;BME280;68974;47.754;-3.364;2023-04-28T05:19:20;101345.09;;;13.27;92.89
79527;BME280;68974;47.754;-3.364;2023-04-28T05:21:45;101348.72;;;13.23;92.86
79527;BME280;68974;47.754;-3.364;2023-04-28T05:24:13;101358.34;;;13.25;92.84
79527;BME280;68974;47.754;-3.364;2023-04-28T05:26:38;101359.44;;;13.24;92.77
79527;BME280;68974;47.754;-3.364;2023-04-28T05:29:04;101364.38;;;13.32;92.69
79527;BME280;68974;47.754;-3.364;2023-04-28T05:31:30;101364.13;;;13.29;92.53
79527;BME280;68974;47.754;-3.364;2023-04-28T05:33:55;101367.16;;;13.32;92.62
79527;BME280;68974;47.754;-3.364;2023-04-28T05:36:21;101370.16;;;13.36;92.20
79527;BME280;68974;47.754;-3.364;2023-04-28T05:38:46;101368.47;;;13.40;92.17
79527;BME280;68974;47.754;-3.364;2023-04-28T05:41:12;101376.19;;;13.43;91.81
79527;BME280;68974;47.754;-3.364;2023-04-28T05:43:37;101372.06;;;13.40;92.02
79527;BME280;68974;47.754;-3.364;2023-04-28T05:46:02;101378.41;;;13.41;91.84
79527;BME280;68974;47.754;-3.364;2023-04-28T05:48:28;101378.41;;;13.41;92.08
79527;BME280;68974;47.754;-3.364;2023-04-28T05:50:53;101381.75;;;13.38;91.71
79527;BME280;68974;47.754;-3.364;2023-04-28T05:53:19;101389.69;;;13.44;91.71
79527;BME280;68974;47.754;-3.364;2023-04-28T05:55:44;101396.03;;;13.45;91.65
79527;BME280;68974;47.754;-3.364;2023-04-28T05:58:10;101399.91;;;13.44;91.88
79527;BME280;68974;47.754;-3.364;2023-04-28T06:00:35;101402.97;;;13.42;91.47
79527;BME280;68974;47.754;-3.364;2023-04-28T06:03:01;101404.88;;;13.47;91.22
79527;BME280;68974;47.754;-3.364;2023-04-28T06:05:26;101398.78;;;13.50;91.01
79527;BME280;68974;47.754;-3.364;2023-04-28T06:07:52;101407.09;;;13.45;90.25
79527;BME280;68974;47.754;-3.364;2023-04-28T06:10:20;101409.31;;;13.43;90.71
79527;BME280;68974;47.754;-3.364;2023-04-28T06:12:46;101420.00;;;13.55;90.52
79527;BME280;68974;47.754;-3.364;2023-04-28T06:15:11;101418.94;;;13.51;90.36
79527;BME280;68974;47.754;-3.364;2023-04-28T06:17:37;101418.66;;;13.52;90.63
79527;BME280;68974;47.754;-3.364;2023-04-28T06:20:03;101420.31;;;13.53;90.57
79527;BME280;68974;47.754;-3.364;2023-04-28T06:22:29;101410.34;;;13.57;90.12
79527;BME280;68974;47.754;-3.364;2023-04-28T06:24:54;101407.03;;;13.55;89.24
79527;BME280;68974;47.754;-3.364;2023-04-28T06:27:20;101410.88;;;13.54;89.97
79527;BME280;68974;47.754;-3.364;2023-04-28T06:29:45;101408.72;;;13.51;90.15
79527;BME280;68974;47.754;-3.364;2023-04-28T06:32:10;101420.59;;;13.52;89.75
79527;BME280;68974;47.754;-3.364;2023-04-28T06:34:36;101410.00;;;13.64;89.01
79527;BME280;68974;47.754;-3.364;2023-04-28T06:37:01;101414.47;;;13.55;89.56
79527;BME280;68974;47.754;-3.364;2023-04-28T06:39:27;101404.88;;;13.47;89.59
79527;BME280;68974;47.754;-3.364;2023-04-28T06:41:52;101406.53;;;13.48;89.64
79527;BME280;68974;47.754;-3.364;2023-04-28T06:44:18;101408.75;;;13.46;89.54
79527;BME280;68974;47.754;-3.364;2023-04-28T06:46:44;101414.28;;;13.41;89.45
79527;BME280;68974;47.754;-3.364;2023-04-28T06:49:09;101422.81;;;13.44;89.95
79527;BME280;68974;47.754;-3.364;2023-04-28T06:51:34;101416.75;;;13.48;89.74
79527;BME280;68974;47.754;-3.364;2023-04-28T06:54:00;101428.28;;;13.55;89.52
79527;BME280;68974;47.754;-3.364;2023-04-28T06:56:25;101429.69;;;13.52;89.96
79527;BME280;68974;47.754;-3.364;2023-04-28T06:58:51;101425.28;;;13.51;89.47
79527;BME280;68974;47.754;-3.364;2023-04-28T07:01:17;101423.84;;;13.59;89.82
79527;BME280;68974;47.754;-3.364;2023-04-28T07:03:42;101427.69;;;13.68;89.92
79527;BME280;68974;47.754;-3.364;2023-04-28T07:06:07;101426.22;;;13.80;88.84
79527;BME280;68974;47.754;-3.364;2023-04-28T07:08:33;101426.13;;;13.91;88.09
79527;BME280;68974;47.754;-3.364;2023-04-28T07:10:59;101435.47;;;14.00;87.85
79527;BME280;68974;47.754;-3.364;2023-04-28T07:13:28;101432.66;;;14.05;86.95
79527;BME280;68974;47.754;-3.364;2023-04-28T07:15:54;101433.41;;;14.15;86.40
79527;BME280;68974;47.754;-3.364;2023-04-28T07:18:19;101433.09;;;14.22;86.74
79527;BME280;68974;47.754;-3.364;2023-04-28T07:20:45;101442.47;;;14.26;86.49
79527;BME280;68974;47.754;-3.364;2023-04-28T07:23:12;101446.28;;;14.30;86.25
79527;BME280;68974;47.754;-3.364;2023-04-28T07:25:37;101444.91;;;14.27;85.47
79527;BME280;68974;47.754;-3.364;2023-04-28T07:28:04;101447.72;;;14.22;85.87
79527;BME280;68974;47.754;-3.364;2023-04-28T07:30:29;101450.47;;;14.22;86.17
79527;BME280;68974;47.754;-3.364;2023-04-28T07:32:55;101451.81;;;14.30;86.39
79527;BME280;68974;47.754;-3.364;2023-04-28T07:35:20;101450.66;;;14.41;86.30
79527;BME280;68974;47.754;-3.364;2023-04-28T07:37:46;101449.44;;;14.52;85.92
79527;BME280;68974;47.754;-3.364;2023-04-28T07:40:11;101447.44;;;14.58;85.98
79527;BME280;68974;47.754;-3.364;2023-04-28T07:42:37;101449.09;;;14.59;85.30
79527;BME280;68974;47.754;-3.364;2023-04-28T07:45:03;101452.88;;;14.68;84.75
79527;BME280;68974;47.754;-3.364;2023-04-28T07:47:29;101450.66;;;14.70;84.28
79527;BME280;68974;47.754;-3.364;2023-04-28T07:49:55;101460.31;;;14.72;83.89
79527;BME280;68974;47.754;-3.364;2023-04-28T07:52:21;101468.03;;;14.76;83.40
79527;BME280;68974;47.754;-3.364;2023-04-28T07:54:46;101470.75;;;14.81;83.78
79527;BME280;68974;47.754;-3.364;2023-04-28T07:57:12;101473.03;;;14.73;83.05
79527;BME280;68974;47.754;-3.364;2023-04-28T07:59:37;101481.75;;;14.86;83.46
79527;BME280;68974;47.754;-3.364;2023-04-28T08:02:03;101477.31;;;14.90;83.47
79527;BME280;68974;47.754;-3.364;2023-04-28T08:04:28;101485.69;;;15.08;83.44
79527;BME280;68974;47.754;-3.364;2023-04-28T08:06:56;101489.22;;;15.14;82.87
79527;BME280;68974;47.754;-3.364;2023-04-28T08:09:21;101501.34;;;15.18;82.82
79527;BME280;68974;47.754;-3.364;2023-04-28T08:11:46;101500.41;;;15.04;81.43
79527;BME280;68974;47.754;-3.364;2023-04-28T08:14:12;101498.56;;;15.18;82.82
79527;BME280;68974;47.754;-3.364;2023-04-28T08:16:37;101500.19;;;15.24;82.29
79527;BME280;68974;47.754;-3.364;2023-04-28T08:19:05;101502.94;;;15.24;82.37
79527;BME280;68974;47.754;-3.364;2023-04-28T08:21:30;101507.34;;;15.25;81.95
79527;BME280;68974;47.754;-3.364;2023-04-28T08:23:56;101506.06;;;15.17;82.10
79527;BME280;68974;47.754;-3.364;2023-04-28T08:26:22;101508.75;;;15.23;82.31
79527;BME280;68974;47.754;-3.364;2023-04-28T08:28:49;101498.97;;;15.30;81.82
79527;BME280;68974;47.754;-3.364;2023-04-28T08:31:15;101502.06;;;15.29;82.58
79527;BME280;68974;47.754;-3.364;2023-04-28T08:33:40;101505.88;;;15.33;82.36
79527;BME280;68974;47.754;-3.364;2023-04-28T08:36:09;101505.28;;;15.36;82.28
79527;BME280;68974;47.754;-3.364;2023-04-28T08:38:36;101498.16;;;15.30;82.25
79527;BME280;68974;47.754;-3.364;2023-04-28T08:41:03;101507.09;;;15.22;83.14
79527;BME280;68974;47.754;-3.364;2023-04-28T08:43:32;101507.94;;;15.22;83.81
79527;BME280;68974;47.754;-3.364;2023-04-28T08:45:58;101519.25;;;15.49;83.31
79527;BME280;68974;47.754;-3.364;2023-04-28T08:48:26;101516.25;;;15.70;81.55
79527;BME280;68974;47.754;-3.364;2023-04-28T08:50:53;101513.75;;;15.92;79.79
79527;BME280;68974;47.754;-3.364;2023-04-28T08:53:24;101514.25;;;15.94;78.77
79527;BME280;68974;47.754;-3.364;2023-04-28T08:55:59;101512.31;;;16.13;78.66
79527;BME280;68974;47.754;-3.364;2023-04-28T08:58:26;101520.19;;;16.25;78.33
79527;BME280;68974;47.754;-3.364;2023-04-28T09:00:52;101521.84;;;16.26;79.52
79527;BME280;68974;47.754;-3.364;2023-04-28T09:03:18;101509.34;;;16.28;78.91
79527;BME280;68974;47.754;-3.364;2023-04-28T09:05:44;101522.13;;;16.43;78.01
79527;BME280;68974;47.754;-3.364;2023-04-28T09:08:09;101513.34;;;16.55;78.63
79527;BME280;68974;47.754;-3.364;2023-04-28T09:10:36;101511.66;;;16.59;77.78
79527;BME280;68974;47.754;-3.364;2023-04-28T09:13:02;101516.09;;;16.60;77.76
79527;BME280;68974;47.754;-3.364;2023-04-28T09:15:38;101528.59;;;16.76;77.27
79527;BME280;68974;47.754;-3.364;2023-04-28T09:18:07;101525.41;;;16.82;76.96
79527;BME280;68974;47.754;-3.364;2023-04-28T09:20:34;101523.44;;;16.83;76.79
79527;BME280;68974;47.754;-3.364;2023-04-28T09:25:37;101525.28;;;16.74;76.19
79527;BME280;68974;47.754;-3.364;2023-04-28T09:28:19;101525.19;;;16.79;76.35
79527;BME280;68974;47.754;-3.364;2023-04-28T09:30:46;101532.97;;;16.77;77.11
79527;BME280;68974;47.754;-3.364;2023-04-28T09:33:12;101524.56;;;16.82;76.52
79527;BME280;68974;47.754;-3.364;2023-04-28T09:35:38;101521.66;;;16.73;76.03
79527;BME280;68974;47.754;-3.364;2023-04-28T09:38:05;101526.44;;;16.86;75.50
79527;BME280;68974;47.754;-3.364;2023-04-28T09:40:30;101517.91;;;17.29;75.51
79527;BME280;68974;47.754;-3.364;2023-04-28T09:42:56;101518.25;;;18.04;72.36
79527;BME280;68974;47.754;-3.364;2023-04-28T09:45:22;101511.84;;;18.53;68.34
79527;BME280;68974;47.754;-3.364;2023-04-28T09:47:49;101508.94;;;19.12;67.31
79527;BME280;68974;47.754;-3.364;2023-04-28T09:50:15;101514.47;;;19.73;65.59
79527;BME280;68974;47.754;-3.364;2023-04-28T09:52:55;101508.78;;;20.90;61.02
79527;BME280;68974;47.754;-3.364;2023-04-28T09:55:21;101499.53;;;21.53;60.43
79527;BME280;68974;47.754;-3.364;2023-04-28T09:57:48;101499.81;;;21.60;57.55
79527;BME280;68974;47.754;-3.364;2023-04-28T10:00:15;101498.38;;;21.25;59.84
79527;BME280;68974;47.754;-3.364;2023-04-28T10:02:42;101503.19;;;21.45;59.82
79527;BME280;68974;47.754;-3.364;2023-04-28T10:05:08;101505.03;;;20.86;59.21
79527;BME280;68974;47.754;-3.364;2023-04-28T10:07:33;101513.78;;;20.42;60.20
79527;BME280;68974;47.754;-3.364;2023-04-28T10:10:00;101514.25;;;20.35;62.05
79527;BME280;68974;47.754;-3.364;2023-04-28T10:12:26;101524.72;;;20.21;61.51
79527;BME280;68974;47.754;-3.364;2023-04-28T10:14:52;101518.34;;;20.72;60.70
79527;BME280;68974;47.754;-3.364;2023-04-28T10:17:21;101522.47;;;21.38;60.81
79527;BME280;68974;47.754;-3.364;2023-04-28T10:19:51;101527.38;;;21.79;59.15
79527;BME280;68974;47.754;-3.364;2023-04-28T10:25:25;101531.34;;;21.40;59.19
79527;BME280;68974;47.754;-3.364;2023-04-28T10:27:51;101536.59;;;20.61;59.33
79527;BME280;68974;47.754;-3.364;2023-04-28T10:30:19;101531.91;;;21.08;59.11
79527;BME280;68974;47.754;-3.364;2023-04-28T10:32:45;101532.03;;;21.29;59.24
79527;BME280;68974;47.754;-3.364;2023-04-28T10:38:16;101532.09;;;21.87;58.69
79527;BME280;68974;47.754;-3.364;2023-04-28T10:40:43;101526.72;;;22.32;57.96
79527;BME280;68974;47.754;-3.364;2023-04-28T10:43:13;101533.13;;;22.12;56.92
79527;BME280;68974;47.754;-3.364;2023-04-28T10:56:08;101515.66;;;23.47;52.00
79527;BME280;68974;47.754;-3.364;2023-04-28T10:58:34;101516.59;;;23.51;49.95
79527;BME280;68974;47.754;-3.364;2023-04-28T11:06:27;101524.06;;;24.07;49.10
79527;BME280;68974;47.754;-3.364;2023-04-28T11:14:36;101512.66;;;24.68;46.88
79527;BME280;68974;47.754;-3.364;2023-04-28T11:17:09;101511.88;;;24.83;49.94
79527;BME280;68974;47.754;-3.364;2023-04-28T11:22:26;101517.63;;;25.77;46.28
79527;BME280;68974;47.754;-3.364;2023-04-28T11:24:55;101508.16;;;25.23;45.01
79527;BME280;68974;47.754;-3.364;2023-04-28T11:27:25;101513.38;;;25.68;46.48
79527;BME280;68974;47.754;-3.364;2023-04-28T11:29:51;101507.09;;;25.74;46.42
79527;BME280;68974;47.754;-3.364;2023-04-28T11:32:25;101513.00;;;25.85;45.49
79527;BME280;68974;47.754;-3.364;2023-04-28T11:34:50;101511.53;;;26.26;45.93
79527;BME280;68974;47.754;-3.364;2023-04-28T11:37:16;101504.72;;;26.46;44.08
79527;BME280;68974;47.754;-3.364;2023-04-28T11:39:41;101493.59;;;26.34;44.30
79527;BME280;68974;47.754;-3.364;2023-04-28T11:42:10;101492.81;;;26.53;46.29
79527;BME280;68974;47.754;-3.364;2023-04-28T11:44:36;101490.28;;;26.48;45.94
79527;BME280;68974;47.754;-3.364;2023-04-28T11:47:03;101492.41;;;26.35;45.10
79527;BME280;68974;47.754;-3.364;2023-04-28T11:49:30;101484.31;;;26.14;45.41
79527;BME280;68974;47.754;-3.364;2023-04-28T11:52:03;101493.22;;;25.50;45.36
79527;BME280;68974;47.754;-3.364;2023-04-28T11:54:30;101491.56;;;25.18;46.63
79527;BME280;68974;47.754;-3.364;2023-04-28T11:56:56;101498.53;;;24.92;49.42
79527;BME280;68974;47.754;-3.364;2023-04-28T11:59:29;101511.72;;;24.76;46.86
79527;BME280;68974;47.754;-3.364;2023-04-28T12:01:59;101508.53;;;24.50;49.99
79527;BME280;68974;47.754;-3.364;2023-04-28T12:04:36;101508.63;;;24.01;51.54
79527;BME280;68974;47.754;-3.364;2023-04-28T12:09:32;101501.44;;;22.95;52.64
79527;BME280;68974;47.754;-3.364;2023-04-28T12:12:05;101500.00;;;22.56;54.70
79527;BME280;68974;47.754;-3.364;2023-04-28T12:14:32;101513.88;;;22.31;54.30
79527;BME280;68974;47.754;-3.364;2023-04-28T12:17:00;101512.88;;;22.48;54.15
79527;BME280;68974;47.754;-3.364;2023-04-28T12:19:26;101505.38;;;22.61;53.40
79527;BME280;68974;47.754;-3.364;2023-04-28T12:22:04;101504.03;;;23.12;52.25
79527;BME280;68974;47.754;-3.364;2023-04-28T12:24:31;101510.16;;;23.26;52.29
79527;BME280;68974;47.754;-3.364;2023-04-28T12:27:15;101508.06;;;23.35;51.85
79527;BME280;68974;47.754;-3.364;2023-04-28T12:29:41;101511.09;;;23.30;51.53
79527;BME280;68974;47.754;-3.364;2023-04-28T12:32:09;101507.94;;;23.92;50.10
79527;BME280;68974;47.754;-3.364;2023-04-28T12:34:36;101508.50;;;24.62;49.96
79527;BME280;68974;47.754;-3.364;2023-04-28T12:37:03;101511.34;;;25.06;49.37
79527;BME280;68974;47.754;-3.364;2023-04-28T12:39:37;101507.25;;;24.87;47.51
79527;BME280;68974;47.754;-3.364;2023-04-28T12:42:03;101499.09;;;25.14;46.76
79527;BME280;68974;47.754;-3.364;2023-04-28T12:44:35;101512.16;;;23.86;49.76
79527;BME280;68974;47.754;-3.364;2023-04-28T12:47:02;101504.94;;;23.73;50.69
79527;BME280;68974;47.754;-3.364;2023-04-28T12:49:28;101503.41;;;24.40;50.47
79527;BME280;68974;47.754;-3.364;2023-04-28T12:51:53;101498.41;;;25.17;49.65
79527;BME280;68974;47.754;-3.364;2023-04-28T12:54:19;101504.41;;;24.59;47.32
79527;BME280;68974;47.754;-3.364;2023-04-28T12:56:44;101500.22;;;25.56;45.68
79527;BME280;68974;47.754;-3.364;2023-04-28T12:59:10;101498.38;;;26.14;44.67
79527;BME280;68974;47.754;-3.364;2023-04-28T13:01:36;101506.91;;;25.83;43.24
79527;BME280;68974;47.754;-3.364;2023-04-28T13:04:01;101490.59;;;25.26;46.80
79527;BME280;68974;47.754;-3.364;2023-04-28T13:06:26;101509.19;;;24.59;49.04
79527;BME280;68974;47.754;-3.364;2023-04-28T13:08:52;101508.88;;;24.08;51.25
79527;BME280;68974;47.754;-3.364;2023-04-28T13:11:18;101503.84;;;24.82;50.97